createdAt,value
2022-08-02T00:00:50.821Z,1.20
2022-08-02T00:03:52.640Z,1.00
2022-08-02T00:06:49.704Z,1.00
2022-08-02T00:09:46.575Z,1.20
2022-08-02T00:12:43.406Z,1.35
2022-08-02T00:15:40.289Z,1.48
2022-08-02T00:18:37.170Z,1.27
2022-08-02T00:21:34.049Z,1.50
2022-08-02T00:24:31.262Z,1.48
2022-08-02T00:27:28.252Z,1.30
2022-08-02T00:30:25.182Z,1.25
2022-08-02T00:34:26.623Z,1.17
2022-08-02T00:36:38.883Z,1.27
2022-08-02T00:39:36.639Z,1.15
2022-08-02T00:42:33.534Z,1.33
2022-08-02T00:46:02.517Z,1.17
2022-08-02T00:48:49.723Z,1.33
2022-08-02T00:51:46.718Z,1.27
2022-08-02T00:54:43.549Z,1.30
2022-08-02T00:57:40.465Z,1.58
2022-08-02T01:00:37.285Z,1.55
2022-08-02T01:03:34.135Z,1.45
2022-08-02T01:06:33.204Z,1.08
2022-08-02T01:09:30.487Z,1.17
2022-08-02T01:12:27.869Z,1.30
2022-08-02T01:15:35.874Z,1.00
2022-08-02T01:18:42.071Z,1.40
2022-08-02T01:21:58.056Z,1.50
2022-08-02T01:25:47.451Z,1.58
2022-08-02T01:28:54.525Z,1.70
2022-08-02T01:32:18.532Z,1.52
2022-08-02T01:35:24.748Z,1.77
2022-08-02T01:38:37.730Z,1.40
2022-08-02T01:41:36.101Z,1.30
2022-08-02T01:44:36.759Z,1.27
2022-08-02T01:50:37.385Z,1.58
2022-08-02T01:53:36.780Z,1.30
2022-08-02T01:56:34.990Z,1.98
2022-08-02T01:59:32.614Z,1.70
2022-08-02T02:02:31.844Z,1.55
2022-08-02T02:05:31.072Z,1.50
2022-08-02T02:08:38.648Z,1.50
2022-08-02T02:12:09.816Z,1.65
2022-08-02T02:14:54.699Z,1.70
2022-08-02T02:18:12.878Z,1.80
2022-08-02T02:21:11.948Z,1.50
2022-08-02T02:24:11.477Z,1.50
2022-08-02T02:27:12.208Z,1.52
2022-08-02T02:30:10.038Z,1.60
2022-08-02T02:33:08.453Z,1.48
2022-08-02T02:36:07.840Z,1.40
2022-08-02T02:39:13.130Z,1.48
2022-08-02T02:42:16.003Z,1.52
2022-08-02T02:45:14.950Z,1.67
2022-08-02T02:48:13.821Z,1.60
2022-08-02T02:51:14.030Z,1.80
2022-08-02T02:54:30.693Z,1.63
2022-08-02T02:57:31.310Z,1.55
2022-08-02T03:00:47.461Z,1.55
2022-08-02T03:03:45.594Z,1.60
2022-08-02T03:06:42.580Z,1.75
2022-08-02T03:09:39.460Z,2.10
2022-08-02T03:12:36.679Z,2.05
2022-08-02T03:15:36.132Z,1.85
2022-08-02T03:18:40.013Z,1.80
2022-08-02T03:21:36.860Z,1.75
2022-08-02T03:24:33.748Z,1.90
2022-08-02T03:27:30.741Z,1.90
2022-08-02T03:30:27.767Z,2.00
2022-08-02T03:33:26.696Z,2.08
2022-08-02T03:36:25.813Z,2.13
2022-08-02T03:39:23.699Z,1.67
2022-08-02T03:42:22.103Z,1.80
2022-08-02T03:45:20.075Z,2.08
2022-08-02T03:48:34.449Z,2.00
2022-08-02T03:51:32.440Z,1.92
2022-08-02T03:54:32.894Z,1.80
2022-08-02T03:57:33.098Z,1.35
2022-08-02T04:00:29.931Z,1.55
2022-08-02T04:03:27.390Z,1.45
2022-08-02T04:06:28.480Z,1.55
2022-08-02T04:09:25.891Z,1.38
2022-08-02T04:12:22.786Z,2.10
2022-08-02T04:15:19.667Z,1.40
2022-08-02T04:18:19.959Z,2.17
2022-08-02T04:21:19.517Z,1.90
2022-08-02T04:24:18.647Z,1.90
2022-08-02T04:27:49.311Z,2.20
2022-08-02T04:30:33.463Z,2.20
2022-08-02T04:33:31.086Z,1.88
2022-08-02T04:36:31.708Z,2.25
2022-08-02T04:39:28.760Z,1.35
2022-08-02T04:42:27.069Z,1.90
2022-08-02T04:45:25.533Z,1.90
2022-08-02T04:48:22.882Z,1.90
2022-08-02T04:51:19.704Z,1.95
2022-08-02T04:54:16.566Z,1.73
2022-08-02T04:57:32.086Z,1.80
2022-08-02T05:00:29.515Z,1.92
2022-08-02T05:03:26.661Z,2.40
2022-08-02T05:06:23.574Z,1.80
2022-08-02T05:09:20.429Z,2.28
2022-08-02T05:12:17.281Z,2.13
2022-08-02T05:15:16.592Z,2.03
2022-08-02T05:18:13.555Z,2.35
2022-08-02T05:21:10.856Z,2.78
2022-08-02T05:24:08.531Z,2.30
2022-08-02T05:27:16.493Z,2.40
2022-08-02T05:30:18.555Z,1.98
2022-08-02T05:33:15.570Z,1.85
2022-08-02T05:36:12.442Z,2.70
2022-08-02T05:39:10.816Z,2.15
2022-08-02T05:42:09.566Z,1.50
2022-08-02T05:45:07.615Z,2.17
2022-08-02T05:48:05.042Z,2.42
2022-08-02T05:51:16.998Z,1.98
2022-08-02T05:54:27.573Z,2.58
2022-08-02T05:57:32.966Z,2.50
2022-08-02T06:00:42.107Z,2.25
2022-08-02T06:03:51.440Z,2.38
2022-08-02T06:06:54.520Z,2.20
2022-08-02T06:09:51.837Z,2.40
2022-08-02T06:12:54.543Z,2.55
2022-08-02T06:15:53.887Z,2.40
2022-08-02T06:18:50.911Z,2.10
2022-08-02T06:22:40.355Z,2.00
2022-08-02T06:25:11.698Z,2.20
2022-08-02T06:28:25.400Z,2.15
2022-08-02T06:31:22.783Z,2.22
2022-08-02T06:34:19.617Z,2.08
2022-08-02T06:37:47.379Z,2.47
2022-08-02T06:40:54.369Z,2.45
2022-08-02T06:44:26.182Z,2.67
2022-08-02T06:47:20.998Z,2.30
2022-08-02T06:50:17.850Z,2.30
2022-08-02T06:53:14.750Z,2.13
2022-08-02T06:56:12.814Z,2.10
2022-08-02T06:59:09.651Z,2.35
2022-08-02T07:02:06.487Z,2.45
2022-08-02T07:05:04.734Z,2.20
2022-08-02T07:08:02.760Z,2.20
2022-08-02T07:11:01.205Z,2.47
2022-08-02T07:13:58.058Z,2.47
2022-08-02T07:16:54.917Z,2.30
2022-08-02T07:19:52.085Z,2.20
2022-08-02T07:22:49.004Z,2.38
2022-08-02T07:26:02.795Z,2.50
2022-08-02T07:29:01.140Z,2.33
2022-08-02T07:31:58.102Z,2.15
2022-08-02T07:34:55.966Z,2.33
2022-08-02T07:38:01.955Z,1.98
2022-08-02T07:40:59.362Z,2.15
2022-08-02T07:43:56.243Z,1.98
2022-08-02T07:46:53.073Z,2.30
2022-08-02T07:49:50.123Z,2.08
2022-08-02T07:52:48.114Z,1.95
2022-08-02T07:55:45.418Z,1.83
2022-08-02T07:58:43.026Z,1.92
2022-08-02T08:01:40.248Z,1.80
2022-08-02T08:04:43.322Z,2.15
2022-08-02T08:07:40.266Z,2.22
2022-08-02T08:10:37.132Z,2.00
2022-08-02T08:13:33.975Z,1.70
2022-08-02T08:16:30.872Z,2.13
2022-08-02T08:19:50.585Z,1.95
2022-08-02T08:22:44.545Z,2.00
2022-08-02T08:25:42.277Z,2.00
2022-08-02T08:28:39.177Z,1.90
2022-08-02T08:31:36.256Z,1.98
2022-08-02T08:34:34.859Z,1.75
2022-08-02T08:37:35.794Z,1.98
2022-08-02T08:40:32.786Z,1.70
2022-08-02T08:43:29.621Z,1.70
2022-08-02T08:46:34.506Z,1.70
2022-08-02T08:49:52.610Z,1.42
2022-08-02T08:52:56.976Z,2.20
2022-08-02T08:55:56.410Z,1.85
2022-08-02T08:58:53.289Z,1.83
2022-08-02T09:01:51.653Z,1.58
2022-08-02T09:04:54.557Z,1.95
2022-08-02T09:07:53.182Z,1.88
2022-08-02T09:10:50.120Z,1.73
2022-08-02T09:13:57.734Z,1.73
2022-08-02T09:17:05.676Z,1.60
2022-08-02T09:20:09.614Z,1.58
2022-08-02T09:23:07.516Z,1.80
2022-08-02T09:26:30.718Z,1.70
2022-08-02T09:29:27.923Z,1.70
2022-08-02T09:32:24.866Z,1.50
2022-08-02T09:36:06.204Z,1.65
2022-08-02T09:39:03.748Z,1.80
2022-08-02T09:42:10.647Z,1.70
2022-08-02T09:45:09.471Z,1.90
2022-08-02T09:48:08.431Z,1.48
2022-08-02T09:51:05.309Z,1.42
2022-08-02T09:54:09.493Z,1.50
2022-08-02T09:57:07.360Z,1.45
2022-08-02T10:00:15.086Z,1.63
2022-08-02T10:03:21.913Z,1.15
2022-08-02T10:06:19.963Z,1.40
2022-08-02T10:09:17.900Z,2.30
2022-08-02T10:12:15.567Z,1.38
2022-08-02T10:15:12.521Z,1.30
2022-08-02T10:18:28.742Z,1.00
2022-08-02T10:21:46.970Z,1.10
2022-08-02T10:24:48.310Z,1.45
2022-08-02T10:28:04.832Z,1.00
2022-08-02T10:31:06.221Z,1.27
2022-08-02T10:34:07.478Z,0.82
2022-08-02T10:37:08.324Z,1.05
2022-08-02T10:40:06.801Z,1.38
2022-08-02T10:43:03.661Z,1.05
2022-08-02T10:46:30.735Z,1.30
2022-08-02T10:49:44.495Z,1.10
2022-08-02T10:52:41.387Z,1.20
2022-08-02T10:55:47.733Z,1.20
2022-08-02T10:58:44.676Z,1.08
2022-08-02T11:01:44.513Z,0.88
2022-08-02T11:04:44.332Z,1.08
2022-08-02T11:07:49.950Z,1.10
2022-08-02T11:10:47.069Z,1.02
2022-08-02T11:14:07.707Z,0.70
2022-08-02T11:17:05.825Z,1.10
2022-08-02T11:20:23.477Z,1.08
2022-08-02T11:23:44.547Z,1.80
2022-08-02T11:26:44.701Z,1.10
2022-08-02T11:29:45.563Z,1.00
2022-08-02T11:32:42.655Z,0.82
2022-08-02T11:35:40.854Z,0.80
2022-08-02T11:38:37.703Z,0.95
2022-08-02T11:41:46.821Z,0.73
2022-08-02T11:44:46.579Z,0.60
2022-08-02T11:47:54.170Z,0.75
2022-08-02T11:51:16.390Z,0.85
2022-08-02T11:54:13.230Z,0.80
2022-08-02T11:57:21.426Z,0.90
2022-08-02T12:00:18.991Z,0.85
2022-08-02T12:03:19.605Z,0.60
2022-08-02T12:06:18.786Z,1.02
2022-08-02T12:09:18.670Z,0.77
2022-08-02T12:12:16.211Z,0.73
2022-08-02T12:15:13.545Z,0.65
2022-08-02T12:18:33.061Z,0.95
2022-08-02T12:21:29.899Z,0.75
2022-08-02T12:24:29.957Z,0.93
2022-08-02T12:30:28.727Z,0.80
2022-08-02T12:33:30.038Z,0.90
2022-08-02T12:36:27.922Z,0.80
2022-08-02T12:39:43.687Z,0.88
2022-08-02T12:42:49.571Z,0.82
2022-08-02T12:45:49.899Z,0.70
2022-08-02T12:49:08.405Z,0.80
2022-08-02T12:52:21.747Z,0.93
2022-08-02T12:56:01.129Z,0.98
2022-08-02T12:58:52.473Z,1.02
2022-08-02T13:01:49.378Z,0.80
2022-08-02T13:04:50.087Z,0.70
2022-08-02T13:07:48.010Z,0.70
2022-08-02T13:10:45.098Z,0.90
2022-08-02T13:13:42.368Z,0.70
2022-08-02T13:16:40.037Z,0.60
2022-08-02T13:19:38.508Z,1.00
2022-08-02T13:22:37.640Z,0.90
2022-08-02T13:25:47.999Z,0.73
2022-08-02T13:28:49.800Z,0.70
2022-08-02T13:31:46.627Z,0.95
2022-08-02T13:34:43.539Z,0.65
2022-08-02T13:37:41.864Z,0.80
2022-08-02T13:41:04.251Z,0.63
2022-08-02T13:44:09.527Z,1.00
2022-08-02T13:47:08.421Z,1.08
2022-08-02T13:50:06.992Z,1.05
2022-08-02T13:53:03.885Z,1.10
2022-08-02T13:56:01.131Z,0.90
2022-08-02T13:59:00.752Z,0.82
2022-08-02T14:02:18.634Z,0.80
2022-08-02T14:05:15.779Z,0.85
2022-08-02T14:08:16.663Z,1.00
2022-08-02T14:11:14.179Z,0.82
2022-08-02T14:14:16.595Z,0.70
2022-08-02T14:17:14.041Z,1.05
2022-08-02T14:20:17.994Z,1.08
2022-08-02T14:23:17.188Z,0.88
2022-08-02T14:26:27.255Z,0.73
2022-08-02T14:29:24.634Z,0.80
2022-08-02T14:32:21.484Z,0.75
2022-08-02T14:35:26.892Z,0.70
2022-08-02T14:38:24.362Z,0.90
2022-08-02T14:41:24.003Z,1.27
2022-08-02T14:44:20.893Z,0.80
2022-08-02T14:47:17.768Z,1.10
2022-08-02T14:50:17.142Z,1.00
2022-08-02T14:53:13.998Z,1.00
2022-08-02T14:56:10.909Z,0.93
2022-08-02T14:59:08.652Z,0.80
2022-08-02T15:02:05.568Z,0.93
2022-08-02T15:05:06.461Z,1.05
2022-08-02T15:08:03.381Z,1.02
2022-08-02T15:11:00.307Z,1.05
2022-08-02T15:13:59.123Z,0.68
2022-08-02T15:16:58.763Z,0.93
2022-08-02T15:19:59.360Z,1.00
2022-08-02T15:22:58.136Z,0.82
2022-08-02T15:25:55.736Z,1.05
2022-08-02T15:28:55.734Z,0.90
2022-08-02T15:31:52.712Z,0.70
2022-08-02T15:34:49.606Z,0.80
2022-08-02T15:37:46.564Z,0.80
2022-08-02T15:40:43.620Z,0.80
2022-08-02T15:44:00.199Z,0.90
2022-08-02T15:46:57.706Z,0.80
2022-08-02T15:49:54.586Z,0.90
2022-08-02T15:52:51.419Z,0.70
2022-08-02T15:56:05.103Z,0.88
2022-08-02T15:59:03.445Z,0.90
2022-08-02T16:02:00.381Z,0.85
2022-08-02T16:04:57.304Z,1.00
2022-08-02T16:07:54.144Z,1.17
2022-08-02T16:10:51.078Z,0.90
2022-08-02T16:13:53.793Z,0.90
2022-08-02T16:16:51.007Z,0.73
2022-08-02T16:19:49.996Z,0.70
2022-08-02T16:22:48.803Z,0.70
2022-08-02T16:25:45.782Z,0.70
2022-08-02T16:28:42.603Z,1.30
2022-08-02T16:31:42.549Z,2.70
2022-08-02T16:35:04.414Z,1.00
2022-08-02T16:37:56.641Z,2.05
2022-08-02T16:40:58.695Z,1.50
2022-08-02T16:43:58.158Z,1.05
2022-08-02T16:46:55.613Z,1.10
2022-08-02T16:50:04.622Z,0.80
2022-08-02T16:53:07.344Z,0.70
2022-08-02T16:56:04.917Z,0.90
2022-08-02T16:59:02.476Z,1.08
2022-08-02T17:02:11.332Z,0.95
2022-08-02T17:05:13.843Z,1.00
2022-08-02T17:08:17.215Z,0.93
2022-08-02T17:11:17.398Z,1.00
2022-08-02T17:14:14.456Z,0.90
2022-08-02T17:17:14.485Z,1.00
2022-08-02T17:20:11.652Z,0.95
2022-08-02T17:23:08.879Z,0.90
2022-08-02T17:26:13.772Z,1.10
2022-08-02T17:32:29.302Z,1.20
2022-08-02T17:35:52.416Z,1.10
2022-08-02T17:38:50.327Z,1.10
2022-08-02T17:41:50.522Z,1.17
2022-08-02T17:44:49.148Z,1.15
2022-08-02T17:48:03.772Z,1.30
2022-08-02T17:51:02.039Z,1.30
2022-08-02T17:53:58.908Z,1.67
2022-08-02T17:56:56.788Z,1.48
2022-08-02T18:00:04.149Z,1.60
2022-08-02T18:06:20.568Z,1.52
2022-08-02T18:09:23.266Z,1.50
2022-08-02T18:12:20.083Z,1.45
2022-08-02T18:15:20.293Z,1.50
2022-08-02T18:18:19.194Z,1.67
2022-08-02T18:21:26.428Z,1.95
2022-08-02T18:24:24.101Z,1.60
2022-08-02T18:27:21.116Z,1.55
2022-08-02T18:30:21.648Z,1.60
2022-08-02T18:34:00.516Z,1.27
2022-08-02T18:36:47.192Z,1.73
2022-08-02T18:39:51.485Z,1.55
2022-08-02T18:42:48.933Z,1.52
2022-08-02T18:46:07.004Z,1.40
2022-08-02T18:49:06.728Z,1.60
2022-08-02T18:52:12.616Z,1.48
2022-08-02T18:55:10.680Z,1.40
2022-08-02T18:58:20.271Z,1.48
2022-08-02T19:01:21.815Z,1.40
2022-08-02T19:04:29.727Z,1.80
2022-08-02T19:07:50.419Z,1.70
2022-08-02T19:10:49.209Z,1.65
2022-08-02T19:13:46.917Z,1.60
2022-08-02T19:16:44.156Z,1.65
2022-08-02T19:19:40.999Z,1.65
2022-08-02T19:22:37.844Z,1.70
2022-08-02T19:25:35.460Z,1.88
2022-08-02T19:28:35.862Z,2.17
2022-08-02T19:31:34.778Z,1.42
2022-08-02T19:34:50.190Z,1.42
2022-08-02T19:37:47.285Z,1.52
2022-08-02T19:40:46.976Z,1.60
2022-08-02T19:44:24.291Z,1.50
2022-08-02T19:47:00.673Z,1.67
2022-08-02T19:49:57.564Z,1.80
2022-08-02T19:52:54.727Z,1.40
2022-08-02T19:55:58.679Z,1.52
2022-08-02T19:59:12.707Z,1.30
2022-08-02T20:02:11.383Z,1.50
2022-08-02T20:05:16.297Z,1.80
2022-08-02T20:08:31.725Z,2.10
2022-08-02T20:11:34.601Z,1.50
2022-08-02T20:14:32.020Z,1.98
2022-08-02T20:17:31.626Z,1.60
2022-08-02T20:20:28.921Z,1.60
2022-08-02T20:23:34.010Z,1.77
2022-08-02T20:26:31.625Z,1.73
2022-08-02T20:29:45.095Z,1.77
2022-08-02T20:32:52.685Z,1.60
2022-08-02T20:35:53.392Z,2.00
2022-08-02T20:38:50.331Z,1.75
2022-08-02T20:41:55.160Z,2.00
2022-08-02T20:44:55.926Z,1.90
2022-08-02T20:47:54.632Z,2.20
2022-08-02T20:50:52.263Z,2.17
2022-08-02T20:53:56.186Z,2.13
2022-08-02T20:56:53.364Z,2.30
2022-08-02T20:59:51.989Z,1.83
2022-08-02T21:02:49.416Z,1.60
2022-08-02T21:05:54.693Z,1.73
2022-08-02T21:08:52.781Z,1.88
2022-08-02T21:11:50.853Z,1.65
2022-08-02T21:14:48.202Z,1.60
2022-08-02T21:17:53.208Z,1.77
2022-08-02T21:20:57.634Z,1.52
2022-08-02T21:23:55.054Z,1.40
2022-08-02T21:26:52.391Z,1.83
2022-08-02T21:29:49.215Z,1.98
2022-08-02T21:32:50.509Z,1.80
2022-08-02T21:35:48.376Z,1.55
2022-08-02T21:38:46.996Z,1.73
2022-08-02T21:41:45.879Z,1.65
2022-08-02T21:44:45.004Z,1.42
2022-08-02T21:47:47.593Z,1.58
2022-08-02T21:50:44.478Z,1.63
2022-08-02T21:53:43.096Z,1.75
2022-08-02T21:56:40.020Z,1.55
2022-08-02T21:59:36.947Z,1.65
2022-08-02T22:02:34.892Z,1.88
2022-08-02T22:05:37.271Z,1.67
2022-08-02T22:08:34.419Z,1.50
2022-08-02T22:11:33.028Z,1.73
2022-08-02T22:14:29.895Z,1.25
2022-08-02T22:17:52.107Z,1.55
2022-08-02T22:20:45.829Z,1.63
2022-08-02T22:23:51.200Z,1.70
2022-08-02T22:26:48.352Z,1.48
2022-08-02T22:29:45.244Z,1.98
2022-08-02T22:33:01.868Z,1.50
2022-08-02T22:36:12.306Z,1.50
2022-08-02T22:39:18.838Z,1.60
2022-08-02T22:42:16.481Z,1.63
2022-08-02T22:45:13.461Z,1.55
2022-08-02T22:48:10.589Z,1.73
2022-08-02T22:51:07.810Z,1.30
2022-08-02T22:54:04.812Z,1.45
2022-08-02T22:57:11.279Z,1.45
2022-08-02T22:58:38.701Z,1.10
2022-08-02T22:58:58.173Z,1.40
2022-08-02T23:00:09.964Z,1.60
2022-08-02T23:03:07.063Z,1.63
2022-08-02T23:06:04.674Z,1.30
2022-08-02T23:09:01.519Z,1.67
2022-08-02T23:11:58.375Z,1.70
2022-08-02T23:14:55.237Z,1.50
2022-08-02T23:18:10.985Z,1.48
2022-08-02T23:21:08.090Z,1.67
2022-08-02T23:24:05.295Z,1.50
2022-08-02T23:27:02.223Z,1.63
2022-08-02T23:30:01.005Z,1.33
2022-08-02T23:32:57.826Z,1.30
2022-08-02T23:35:54.654Z,1.52
2022-08-02T23:38:51.739Z,1.88
2022-08-02T23:41:49.298Z,1.42
2022-08-02T23:44:52.857Z,1.33
2022-08-02T23:47:50.181Z,1.50
2022-08-02T23:50:47.825Z,1.50
2022-08-02T23:53:44.899Z,1.60
2022-08-02T23:56:41.987Z,1.50
2022-08-02T23:59:38.853Z,1.45
